createdAt,value
2018-08-10T00:02:08.816Z,19.50
2018-08-10T00:04:37.108Z,19.60
2018-08-10T00:07:05.380Z,19.70
2018-08-10T00:09:33.741Z,19.70
2018-08-10T00:12:01.916Z,19.80
2018-08-10T00:14:30.181Z,19.90
2018-08-10T00:16:58.388Z,19.90
2018-08-10T00:19:26.616Z,19.80
2018-08-10T00:21:54.938Z,19.70
2018-08-10T00:24:23.121Z,19.80
2018-08-10T00:26:51.375Z,19.70
2018-08-10T00:29:19.575Z,19.60
2018-08-10T00:31:47.800Z,19.60
2018-08-10T00:34:16.012Z,19.50
2018-08-10T00:36:44.174Z,19.30
2018-08-10T00:39:13.625Z,19.30
2018-08-10T00:41:42.424Z,19.30
2018-08-10T00:44:10.688Z,19.30
2018-08-10T00:46:38.928Z,19.30
2018-08-10T00:49:07.246Z,19.30
2018-08-10T00:51:35.504Z,19.40
2018-08-10T00:54:03.852Z,19.30
2018-08-10T00:56:32.125Z,19.30
2018-08-10T00:59:00.546Z,19.40
2018-08-10T01:01:28.732Z,19.10
2018-08-10T01:03:56.948Z,19.10
2018-08-10T01:06:25.156Z,19.10
2018-08-10T01:08:53.307Z,18.90
2018-08-10T01:11:21.540Z,18.90
2018-08-10T01:13:49.696Z,19.00
2018-08-10T01:16:17.869Z,19.00
2018-08-10T01:18:46.089Z,19.20
2018-08-10T01:21:14.350Z,19.30
2018-08-10T01:23:42.562Z,19.40
2018-08-10T01:26:10.888Z,19.40
2018-08-10T01:28:39.061Z,19.40
2018-08-10T01:31:07.337Z,19.50
2018-08-10T01:33:35.548Z,19.40
2018-08-10T01:36:03.920Z,19.30
2018-08-10T01:38:32.170Z,19.30
2018-08-10T01:41:00.344Z,19.40
2018-08-10T01:43:28.520Z,19.30
2018-08-10T01:45:56.694Z,19.20
2018-08-10T01:48:24.881Z,19.20
2018-08-10T01:50:53.060Z,19.10
2018-08-10T01:53:21.224Z,19.10
2018-08-10T01:55:49.413Z,19.10
2018-08-10T01:58:17.588Z,19.20
2018-08-10T02:00:45.797Z,19.20
2018-08-10T02:03:14.021Z,19.20
2018-08-10T02:05:42.167Z,19.20
2018-08-10T02:08:10.416Z,19.10
2018-08-10T02:10:38.581Z,19.20
2018-08-10T02:13:06.779Z,19.40
2018-08-10T02:15:34.959Z,19.40
2018-08-10T02:18:03.216Z,19.50
2018-08-10T02:20:31.425Z,19.50
2018-08-10T02:22:59.611Z,19.40
2018-08-10T02:25:27.996Z,19.40
2018-08-10T02:27:56.301Z,19.40
2018-08-10T02:30:24.541Z,19.40
2018-08-10T02:32:52.742Z,19.30
2018-08-10T02:35:21.016Z,19.30
2018-08-10T02:37:49.206Z,19.30
2018-08-10T02:40:21.472Z,19.30
2018-08-10T02:42:50.484Z,19.30
2018-08-10T02:45:18.940Z,19.30
2018-08-10T02:47:47.772Z,19.30
2018-08-10T02:50:16.044Z,19.30
2018-08-10T02:52:44.520Z,19.20
2018-08-10T02:55:13.709Z,19.30
2018-08-10T02:57:42.220Z,19.20
2018-08-10T03:00:12.388Z,19.10
2018-08-10T03:02:40.980Z,19.00
2018-08-10T03:05:09.853Z,19.00
2018-08-10T03:07:38.247Z,19.00
2018-08-10T03:10:07.657Z,19.10
2018-08-10T03:12:35.923Z,19.10
2018-08-10T03:15:05.463Z,19.00
2018-08-10T03:17:33.633Z,19.00
2018-08-10T03:20:01.925Z,19.20
2018-08-10T03:22:30.174Z,19.20
2018-08-10T03:24:58.460Z,19.20
2018-08-10T03:27:26.663Z,19.20
2018-08-10T03:29:54.804Z,19.10
2018-08-10T03:32:23.039Z,19.00
2018-08-10T03:34:51.192Z,19.00
2018-08-10T03:37:19.423Z,18.90
2018-08-10T03:39:47.624Z,18.90
2018-08-10T03:42:15.836Z,18.80
2018-08-10T03:44:44.303Z,18.90
2018-08-10T03:47:12.513Z,18.90
2018-08-10T03:49:40.682Z,19.00
2018-08-10T03:52:08.936Z,19.00
2018-08-10T03:54:37.104Z,19.10
2018-08-10T03:57:05.498Z,19.20
2018-08-10T03:59:33.704Z,19.20
2018-08-10T04:02:01.955Z,19.30
2018-08-10T04:04:30.165Z,19.30
2018-08-10T04:06:58.412Z,19.30
2018-08-10T04:09:26.669Z,19.30
2018-08-10T04:11:54.840Z,19.30
2018-08-10T04:14:23.080Z,19.20
2018-08-10T04:16:51.234Z,19.10
2018-08-10T04:19:19.441Z,19.10
2018-08-10T04:21:47.685Z,19.20
2018-08-10T04:24:15.831Z,19.20
2018-08-10T04:26:44.032Z,19.20
2018-08-10T04:29:12.216Z,19.20
2018-08-10T04:31:40.488Z,19.20
2018-08-10T04:34:08.665Z,19.20
2018-08-10T04:36:36.877Z,19.40
2018-08-10T04:39:08.972Z,19.30
2018-08-10T04:41:37.196Z,19.30
2018-08-10T04:44:05.409Z,19.30
2018-08-10T04:46:33.608Z,19.20
2018-08-10T04:49:01.781Z,19.20
2018-08-10T04:51:30.048Z,19.20
2018-08-10T04:53:58.276Z,19.20
2018-08-10T04:56:26.461Z,19.20
2018-08-10T04:58:54.730Z,19.30
2018-08-10T05:01:22.928Z,19.30
2018-08-10T05:03:51.193Z,19.40
2018-08-10T05:06:19.358Z,19.30
2018-08-10T05:08:47.561Z,19.20
2018-08-10T05:11:15.713Z,19.10
2018-08-10T05:13:43.944Z,19.20
2018-08-10T05:16:12.120Z,19.10
2018-08-10T05:18:40.360Z,19.10
2018-08-10T05:21:08.561Z,19.00
2018-08-10T05:23:36.786Z,18.90
2018-08-10T05:26:05.273Z,19.00
2018-08-10T05:28:33.440Z,18.90
2018-08-10T05:31:01.944Z,18.90
2018-08-10T05:33:30.327Z,19.00
2018-08-10T05:35:58.581Z,19.00
2018-08-10T05:38:26.856Z,18.90
2018-08-10T05:40:55.052Z,19.00
2018-08-10T05:43:23.259Z,19.00
2018-08-10T05:45:51.939Z,18.90
2018-08-10T05:48:20.128Z,19.00
2018-08-10T05:50:48.364Z,19.20
2018-08-10T05:53:16.513Z,19.20
2018-08-10T05:55:44.680Z,19.10
2018-08-10T05:58:12.960Z,18.90
2018-08-10T06:00:41.120Z,18.80
2018-08-10T06:03:09.352Z,18.60
2018-08-10T06:05:37.512Z,18.40
2018-08-10T06:08:05.825Z,18.20
2018-08-10T06:10:34.037Z,18.00
2018-08-10T06:13:02.215Z,17.90
2018-08-10T06:15:30.549Z,17.90
2018-08-10T06:17:59.161Z,17.80
2018-08-10T06:20:27.388Z,17.70
2018-08-10T06:22:55.636Z,17.60
2018-08-10T06:25:23.804Z,17.60
2018-08-10T06:27:51.967Z,17.50
2018-08-10T06:30:20.173Z,17.30
2018-08-10T06:32:48.313Z,17.30
2018-08-10T06:35:16.509Z,17.30
2018-08-10T06:37:44.685Z,17.10
2018-08-10T06:40:12.877Z,17.00
2018-08-10T06:42:41.053Z,17.00
2018-08-10T06:45:09.258Z,16.90
2018-08-10T06:47:37.949Z,16.90
2018-08-10T06:50:06.623Z,16.90
2018-08-10T06:52:35.564Z,17.00
2018-08-10T06:55:04.030Z,17.10
2018-08-10T06:57:32.201Z,17.00
2018-08-10T07:00:00.411Z,17.00
2018-08-10T07:02:28.610Z,17.10
2018-08-10T07:04:56.840Z,17.00
2018-08-10T07:07:25.145Z,16.90
2018-08-10T07:09:53.304Z,16.80
2018-08-10T07:12:21.516Z,16.70
2018-08-10T07:14:49.691Z,16.50
2018-08-10T07:17:17.855Z,16.50
2018-08-10T07:19:46.037Z,16.60
2018-08-10T07:22:14.255Z,16.60
2018-08-10T07:24:42.406Z,16.60
2018-08-10T07:27:10.618Z,16.50
2018-08-10T07:29:38.806Z,16.50
2018-08-10T07:32:07.006Z,16.50
2018-08-10T07:34:35.209Z,16.40
2018-08-10T07:37:03.429Z,16.30
2018-08-10T07:39:31.621Z,16.40
2018-08-10T07:41:59.820Z,16.50
2018-08-10T07:44:28.017Z,16.50
2018-08-10T07:46:56.173Z,16.50
2018-08-10T07:49:24.404Z,16.50
2018-08-10T07:51:52.568Z,16.50
2018-08-10T07:54:20.769Z,16.40
2018-08-10T07:56:48.985Z,16.20
2018-08-10T07:59:17.158Z,15.90
2018-08-10T08:01:45.416Z,15.70
2018-08-10T08:04:13.576Z,15.60
2018-08-10T08:06:41.788Z,15.60
2018-08-10T08:09:11.896Z,15.50
2018-08-10T08:11:40.064Z,15.50
2018-08-10T08:14:08.392Z,15.40
2018-08-10T08:16:36.795Z,15.50
2018-08-10T08:19:05.047Z,15.40
2018-08-10T08:21:33.233Z,15.40
2018-08-10T08:24:01.524Z,15.40
2018-08-10T08:26:29.674Z,15.40
2018-08-10T08:28:57.910Z,15.50
2018-08-10T08:31:26.220Z,15.60
2018-08-10T08:34:02.233Z,15.60
2018-08-10T08:36:30.453Z,15.70
2018-08-10T08:39:20.696Z,15.70
2018-08-10T08:41:48.985Z,15.60
2018-08-10T08:44:30.904Z,15.80
2018-08-10T08:46:59.080Z,15.80
2018-08-10T08:49:27.264Z,15.90
2018-08-10T08:51:55.501Z,15.90
2018-08-10T08:55:30.479Z,15.80
2018-08-10T08:57:58.857Z,15.90
2018-08-10T09:00:27.206Z,15.90
2018-08-10T09:02:55.352Z,15.90
2018-08-10T09:05:23.753Z,15.80
2018-08-10T09:07:51.931Z,16.00
2018-08-10T09:10:20.574Z,16.10
2018-08-10T09:12:48.764Z,16.00
2018-08-10T09:15:18.472Z,15.80
2018-08-10T09:17:46.787Z,15.80
2018-08-10T09:20:15.109Z,15.70
2018-08-10T09:22:43.322Z,15.60
2018-08-10T09:25:14.133Z,15.40
2018-08-10T09:27:42.289Z,15.40
2018-08-10T09:30:12.269Z,15.50
2018-08-10T09:32:40.993Z,15.40
2018-08-10T09:35:10.001Z,15.50
2018-08-10T09:37:38.334Z,15.50
2018-08-10T09:40:11.495Z,15.30
2018-08-10T09:42:39.809Z,15.40
2018-08-10T09:45:09.177Z,15.20
2018-08-10T09:47:37.424Z,15.30
2018-08-10T09:50:06.623Z,15.30
2018-08-10T09:52:34.833Z,15.30
2018-08-10T09:55:20.281Z,15.30
2018-08-10T09:57:49.716Z,15.30
2018-08-10T10:00:23.316Z,15.40
2018-08-10T10:02:58.795Z,15.50
2018-08-10T10:05:27.160Z,15.40
2018-08-10T10:07:55.728Z,15.50
2018-08-10T10:10:24.608Z,15.60
2018-08-10T10:12:53.227Z,15.80
2018-08-10T10:15:21.895Z,15.90
2018-08-10T10:17:50.252Z,16.00
2018-08-10T10:20:18.452Z,15.90
2018-08-10T10:22:47.603Z,16.00
2018-08-10T10:25:15.805Z,16.00
2018-08-10T10:27:44.294Z,16.00
2018-08-10T10:30:12.508Z,15.90
2018-08-10T10:32:40.707Z,16.10
2018-08-10T10:35:08.975Z,16.10
2018-08-10T10:37:37.209Z,16.10
2018-08-10T10:40:06.740Z,16.10
2018-08-10T10:42:35.008Z,16.00
2018-08-10T10:45:03.833Z,15.90
2018-08-10T10:47:32.021Z,15.90
2018-08-10T10:50:00.357Z,16.00
2018-08-10T10:52:28.573Z,16.20
2018-08-10T10:54:56.735Z,16.40
2018-08-10T10:57:24.968Z,16.40
2018-08-10T10:59:53.152Z,16.50
2018-08-10T11:02:21.365Z,16.40
2018-08-10T11:04:49.556Z,16.40
2018-08-10T11:07:17.800Z,16.30
2018-08-10T11:09:45.991Z,16.40
2018-08-10T11:12:14.280Z,16.50
2018-08-10T11:14:42.517Z,16.60
2018-08-10T11:17:10.687Z,16.60
2018-08-10T11:19:38.954Z,16.60
2018-08-10T11:22:07.178Z,16.70
2018-08-10T11:24:35.407Z,16.80
2018-08-10T11:27:03.653Z,16.80
2018-08-10T11:29:31.855Z,16.60
2018-08-10T11:32:00.086Z,16.60
2018-08-10T11:34:28.327Z,16.40
2018-08-10T11:36:56.484Z,16.40
2018-08-10T11:39:24.685Z,16.40
2018-08-10T11:41:52.877Z,16.50
2018-08-10T11:44:21.172Z,16.60
2018-08-10T11:46:49.365Z,16.70
2018-08-10T11:49:17.529Z,16.80
2018-08-10T11:51:45.728Z,17.00
2018-08-10T11:54:13.905Z,17.10
2018-08-10T11:56:42.088Z,17.10
2018-08-10T11:59:10.336Z,17.30
2018-08-10T12:01:38.497Z,17.40
2018-08-10T12:04:06.713Z,17.60
2018-08-10T12:06:34.875Z,17.70
2018-08-10T12:09:04.291Z,17.80
2018-08-10T12:11:32.441Z,17.90
2018-08-10T12:14:00.732Z,18.20
2018-08-10T12:16:28.949Z,18.30
2018-08-10T12:18:57.133Z,18.50
2018-08-10T12:21:25.330Z,18.20
2018-08-10T12:23:53.504Z,18.30
2018-08-10T12:26:21.844Z,18.60
2018-08-10T12:28:50.011Z,18.70
2018-08-10T12:31:18.205Z,18.90
2018-08-10T12:33:46.355Z,19.00
2018-08-10T12:36:14.536Z,19.00
2018-08-10T12:38:42.725Z,18.90
2018-08-10T12:41:10.948Z,18.80
2018-08-10T12:43:39.160Z,18.30
2018-08-10T12:46:07.477Z,17.80
2018-08-10T12:48:35.721Z,17.70
2018-08-10T12:51:03.981Z,17.60
2018-08-10T12:53:32.256Z,17.50
2018-08-10T12:56:00.693Z,17.10
2018-08-10T12:58:28.884Z,17.10
2018-08-10T13:00:57.053Z,17.30
2018-08-10T13:03:25.360Z,17.20
2018-08-10T13:05:53.493Z,17.30
2018-08-10T13:08:21.689Z,17.50
2018-08-10T13:10:49.981Z,17.60
2018-08-10T13:13:18.133Z,17.60
2018-08-10T13:15:46.348Z,17.50
2018-08-10T13:18:14.501Z,17.40
2018-08-10T13:20:42.735Z,17.50
2018-08-10T13:23:10.993Z,17.80
2018-08-10T13:25:39.156Z,17.90
2018-08-10T13:28:07.625Z,17.90
2018-08-10T13:30:35.812Z,17.80
2018-08-10T13:33:04.201Z,17.70
2018-08-10T13:35:32.477Z,17.60
2018-08-10T13:38:00.684Z,17.40
2018-08-10T13:40:28.928Z,17.40
2018-08-10T13:42:57.187Z,17.50
2018-08-10T13:45:25.468Z,17.70
2018-08-10T13:47:53.792Z,17.80
2018-08-10T13:50:22.144Z,17.90
2018-08-10T13:52:50.353Z,18.00
2018-08-10T13:55:19.445Z,18.20
2018-08-10T13:57:48.625Z,18.20
2018-08-10T14:00:23.188Z,18.40
2018-08-10T14:02:53.281Z,18.40
2018-08-10T14:05:22.630Z,18.20
2018-08-10T14:07:51.596Z,18.10
2018-08-10T14:10:19.833Z,18.20
2018-08-10T14:12:48.148Z,18.10
2018-08-10T14:15:16.400Z,18.10
2018-08-10T14:17:44.736Z,18.10
2018-08-10T14:20:13.048Z,18.20
2018-08-10T14:22:41.352Z,18.10
2018-08-10T14:25:10.739Z,18.10
2018-08-10T14:27:39.034Z,18.10
2018-08-10T14:30:10.221Z,18.00
2018-08-10T14:32:38.712Z,17.90
2018-08-10T14:35:07.281Z,17.90
2018-08-10T14:37:36.625Z,17.80
2018-08-10T14:40:05.724Z,17.80
2018-08-10T14:42:34.092Z,17.90
2018-08-10T14:45:02.437Z,17.90
2018-08-10T14:47:30.815Z,17.90
2018-08-10T14:49:59.312Z,17.90
2018-08-10T14:52:27.479Z,17.90
2018-08-10T14:54:55.681Z,17.90
2018-08-10T14:57:23.853Z,18.00
2018-08-10T14:59:52.045Z,18.10
2018-08-10T15:02:20.218Z,17.90
2018-08-10T15:04:48.404Z,17.90
2018-08-10T15:07:16.651Z,17.90
2018-08-10T15:09:44.846Z,17.80
2018-08-10T15:12:13.167Z,17.70
2018-08-10T15:14:41.324Z,17.80
2018-08-10T15:17:09.549Z,17.80
2018-08-10T15:19:37.728Z,17.70
2018-08-10T15:22:05.997Z,17.70
2018-08-10T15:24:34.196Z,17.80
2018-08-10T15:27:02.524Z,17.80
2018-08-10T15:29:31.309Z,18.00
2018-08-10T15:31:59.508Z,18.10
2018-08-10T15:34:27.739Z,18.00
2018-08-10T15:36:55.921Z,18.00
2018-08-10T15:39:24.097Z,18.00
2018-08-10T15:41:52.284Z,18.00
2018-08-10T15:44:23.353Z,17.80
2018-08-10T15:46:51.626Z,17.80
2018-08-10T15:49:19.860Z,17.90
2018-08-10T15:51:48.062Z,17.80
2018-08-10T15:54:16.238Z,17.80
2018-08-10T15:56:44.534Z,17.70
2018-08-10T15:59:12.740Z,17.50
2018-08-10T16:01:40.947Z,17.40
2018-08-10T16:04:09.148Z,17.50
2018-08-10T16:06:37.445Z,17.50
2018-08-10T16:09:08.914Z,17.50
2018-08-10T16:11:37.164Z,17.40
2018-08-10T16:14:05.445Z,17.30
2018-08-10T16:16:33.632Z,17.20
2018-08-10T16:19:01.793Z,17.20
2018-08-10T16:21:30.924Z,17.10
2018-08-10T16:23:59.196Z,17.10
2018-08-10T16:26:27.353Z,17.20
2018-08-10T16:28:55.604Z,17.20
2018-08-10T16:31:23.888Z,17.20
2018-08-10T16:33:52.141Z,17.20
2018-08-10T16:36:20.510Z,17.10
2018-08-10T16:38:48.773Z,17.20
2018-08-10T16:41:17.108Z,17.30
2018-08-10T16:43:45.344Z,17.20
2018-08-10T16:46:13.607Z,17.30
2018-08-10T16:48:41.840Z,17.30
2018-08-10T16:51:10.084Z,17.30
2018-08-10T16:53:38.392Z,17.30
2018-08-10T16:56:06.592Z,17.50
2018-08-10T16:58:34.796Z,17.40
2018-08-10T17:01:03.176Z,17.20
2018-08-10T17:03:31.657Z,17.10
2018-08-10T17:05:59.877Z,17.10
2018-08-10T17:08:28.028Z,16.90
2018-08-10T17:10:56.258Z,16.90
2018-08-10T17:13:24.456Z,17.00
2018-08-10T17:15:52.708Z,16.90
2018-08-10T17:18:20.911Z,16.80
2018-08-10T17:20:49.085Z,16.80
2018-08-10T17:23:17.292Z,16.80
2018-08-10T17:25:45.615Z,16.80
2018-08-10T17:28:13.848Z,16.70
2018-08-10T17:30:42.071Z,16.80
2018-08-10T17:33:10.291Z,16.60
2018-08-10T17:35:38.572Z,16.70
2018-08-10T17:38:07.340Z,16.70
2018-08-10T17:40:35.537Z,16.70
2018-08-10T17:43:03.848Z,16.50
2018-08-10T17:45:32.033Z,16.40
2018-08-10T17:48:00.221Z,16.40
2018-08-10T17:50:28.575Z,16.40
2018-08-10T17:52:56.826Z,16.40
2018-08-10T17:55:25.001Z,16.40
2018-08-10T17:57:53.247Z,16.30
2018-08-10T18:00:25.132Z,16.20
2018-08-10T18:02:53.410Z,16.20
2018-08-10T18:05:21.654Z,16.10
2018-08-10T18:07:49.938Z,16.20
2018-08-10T18:10:18.940Z,16.30
2018-08-10T18:12:47.308Z,16.20
2018-08-10T18:15:17.912Z,16.20
2018-08-10T18:17:46.638Z,16.20
2018-08-10T18:20:16.975Z,16.10
2018-08-10T18:22:48.352Z,16.10
2018-08-10T18:25:17.662Z,16.10
2018-08-10T18:27:45.852Z,16.10
2018-08-10T18:30:19.972Z,16.10
2018-08-10T18:32:48.528Z,16.10
2018-08-10T18:35:16.837Z,16.10
2018-08-10T18:37:45.812Z,16.00
2018-08-10T18:40:14.854Z,16.00
2018-08-10T18:42:44.172Z,16.00
2018-08-10T18:45:14.248Z,16.00
2018-08-10T18:47:42.595Z,16.00
2018-08-10T18:50:12.593Z,15.90
2018-08-10T18:52:41.021Z,15.90
2018-08-10T18:55:14.100Z,15.90
2018-08-10T18:57:42.384Z,15.80
2018-08-10T19:00:16.688Z,15.90
2018-08-10T19:02:45.213Z,15.90
2018-08-10T19:05:14.731Z,15.90
2018-08-10T19:07:43.848Z,15.90
2018-08-10T19:10:14.039Z,15.80
2018-08-10T19:12:42.217Z,15.80
2018-08-10T19:15:12.193Z,15.70
2018-08-10T19:17:40.542Z,15.70
2018-08-10T19:20:09.689Z,15.70
2018-08-10T19:22:38.076Z,15.80
2018-08-10T19:25:07.961Z,15.70
2018-08-10T19:27:36.560Z,15.60
2018-08-10T19:30:07.519Z,15.60
2018-08-10T19:32:35.736Z,15.60
2018-08-10T19:35:04.217Z,15.60
2018-08-10T19:37:32.488Z,15.50
2018-08-10T19:40:00.669Z,15.50
2018-08-10T19:42:29.007Z,15.50
2018-08-10T19:44:57.204Z,15.50
2018-08-10T19:47:25.375Z,15.50
2018-08-10T19:49:54.494Z,15.50
2018-08-10T19:52:22.741Z,15.40
2018-08-10T19:54:51.010Z,15.40
2018-08-10T19:57:19.256Z,15.40
2018-08-10T19:59:47.484Z,15.40
2018-08-10T20:02:15.864Z,15.30
2018-08-10T20:04:44.059Z,15.20
2018-08-10T20:07:12.303Z,15.20
2018-08-10T20:09:40.527Z,15.20
2018-08-10T20:12:08.808Z,15.10
2018-08-10T20:14:37.089Z,15.20
2018-08-10T20:17:05.316Z,15.10
2018-08-10T20:19:33.565Z,15.10
2018-08-10T20:22:01.828Z,15.10
2018-08-10T20:24:30.082Z,15.10
2018-08-10T20:26:58.312Z,15.10
2018-08-10T20:29:26.497Z,15.10
2018-08-10T20:31:54.749Z,15.10
2018-08-10T20:34:23.016Z,15.10
2018-08-10T20:36:51.252Z,15.10
2018-08-10T20:39:20.025Z,15.00
2018-08-10T20:41:48.237Z,15.00
2018-08-10T20:44:16.512Z,15.00
2018-08-10T20:46:44.778Z,15.00
2018-08-10T20:49:13.028Z,15.00
2018-08-10T20:51:41.297Z,14.90
2018-08-10T20:54:09.502Z,15.00
2018-08-10T20:56:37.739Z,14.90
2018-08-10T20:59:05.964Z,14.90
2018-08-10T21:01:34.241Z,15.00
2018-08-10T21:04:02.452Z,15.00
2018-08-10T21:06:30.773Z,15.00
2018-08-10T21:08:59.144Z,15.00
2018-08-10T21:11:27.349Z,14.90
2018-08-10T21:13:55.542Z,14.80
2018-08-10T21:16:23.717Z,14.80
2018-08-10T21:18:51.924Z,14.70
2018-08-10T21:21:20.127Z,14.60
2018-08-10T21:23:48.375Z,14.60
2018-08-10T21:26:16.652Z,14.60
2018-08-10T21:28:44.814Z,14.70
2018-08-10T21:31:13.077Z,14.60
2018-08-10T21:33:41.309Z,14.60
2018-08-10T21:36:09.571Z,14.50
2018-08-10T21:38:37.831Z,14.50
2018-08-10T21:41:06.068Z,14.50
2018-08-10T21:43:34.320Z,14.60
2018-08-10T21:46:02.580Z,14.70
2018-08-10T21:48:30.795Z,14.60
2018-08-10T21:50:59.069Z,14.70
2018-08-10T21:53:27.298Z,14.60
2018-08-10T21:55:55.556Z,14.50
2018-08-10T21:58:23.780Z,14.40
2018-08-10T22:00:58.538Z,14.40
2018-08-10T22:03:26.827Z,14.40
2018-08-10T22:05:55.152Z,14.40
2018-08-10T22:08:23.916Z,14.40
2018-08-10T22:10:52.148Z,14.30
2018-08-10T22:13:26.012Z,14.20
2018-08-10T22:15:59.936Z,14.20
2018-08-10T22:18:33.689Z,14.20
2018-08-10T22:21:01.887Z,14.10
2018-08-10T22:23:30.101Z,14.10
2018-08-10T22:25:59.108Z,14.10
2018-08-10T22:28:27.460Z,14.10
2018-08-10T22:30:55.726Z,14.10
2018-08-10T22:33:23.992Z,14.10
2018-08-10T22:35:52.177Z,14.20
2018-08-10T22:38:20.412Z,14.30
2018-08-10T22:40:48.605Z,14.30
2018-08-10T22:43:16.893Z,14.30
2018-08-10T22:45:45.141Z,14.30
2018-08-10T22:48:13.387Z,14.30
2018-08-10T22:50:41.651Z,14.30
2018-08-10T22:53:09.994Z,14.40
2018-08-10T22:55:38.240Z,14.40
2018-08-10T22:58:06.452Z,14.50
2018-08-10T23:00:34.757Z,14.60
2018-08-10T23:03:03.076Z,14.50
2018-08-10T23:05:31.367Z,14.40
2018-08-10T23:07:59.674Z,14.30
2018-08-10T23:10:27.872Z,14.20
2018-08-10T23:12:56.116Z,14.20
2018-08-10T23:15:24.336Z,14.20
2018-08-10T23:17:52.516Z,14.20
2018-08-10T23:20:20.760Z,14.20
2018-08-10T23:22:49.133Z,14.20
2018-08-10T23:25:17.385Z,14.10
2018-08-10T23:27:45.550Z,14.00
2018-08-10T23:30:15.651Z,14.00
2018-08-10T23:32:44.520Z,14.00
2018-08-10T23:35:12.799Z,14.10
2018-08-10T23:37:41.175Z,14.00
2018-08-10T23:40:12.790Z,14.00
2018-08-10T23:42:41.086Z,14.10
2018-08-10T23:45:11.180Z,14.10
2018-08-10T23:47:40.008Z,14.10
2018-08-10T23:50:10.929Z,14.10
2018-08-10T23:52:39.456Z,14.00
2018-08-10T23:55:08.366Z,14.00
2018-08-10T23:57:37.267Z,14.00
